sensor_id;sensor_type;location;lat;lon;timestamp;temperature;humidity
49379;DHT22;35254;47.990;-1.608;2023-04-09T00:01:09;18.40;50.70
49379;DHT22;35254;47.990;-1.608;2023-04-09T00:03:35;18.40;50.70
49379;DHT22;35254;47.990;-1.608;2023-04-09T00:06:02;18.30;50.70
49379;DHT22;35254;47.990;-1.608;2023-04-09T00:08:28;18.40;50.80
49379;DHT22;35254;47.990;-1.608;2023-04-09T00:10:54;18.30;50.60
49379;DHT22;35254;47.990;-1.608;2023-04-09T00:13:21;18.40;50.60
49379;DHT22;35254;47.990;-1.608;2023-04-09T00:15:47;18.30;50.60
49379;DHT22;35254;47.990;-1.608;2023-04-09T00:18:13;18.30;50.60
49379;DHT22;35254;47.990;-1.608;2023-04-09T00:20:38;18.40;50.60
49379;DHT22;35254;47.990;-1.608;2023-04-09T00:23:04;18.30;50.60
49379;DHT22;35254;47.990;-1.608;2023-04-09T00:25:30;18.40;50.60
49379;DHT22;35254;47.990;-1.608;2023-04-09T00:27:56;18.30;50.60
49379;DHT22;35254;47.990;-1.608;2023-04-09T00:30:22;18.30;50.60
49379;DHT22;35254;47.990;-1.608;2023-04-09T00:32:48;18.30;50.60
49379;DHT22;35254;47.990;-1.608;2023-04-09T00:35:14;18.30;50.60
49379;DHT22;35254;47.990;-1.608;2023-04-09T00:37:42;18.30;50.70
49379;DHT22;35254;47.990;-1.608;2023-04-09T00:40:08;18.30;50.60
49379;DHT22;35254;47.990;-1.608;2023-04-09T00:42:34;18.30;50.60
49379;DHT22;35254;47.990;-1.608;2023-04-09T00:45:00;18.30;50.60
49379;DHT22;35254;47.990;-1.608;2023-04-09T00:47:28;18.30;50.60
49379;DHT22;35254;47.990;-1.608;2023-04-09T00:49:55;18.30;50.70
49379;DHT22;35254;47.990;-1.608;2023-04-09T00:52:21;18.30;50.60
49379;DHT22;35254;47.990;-1.608;2023-04-09T00:54:51;18.30;50.60
49379;DHT22;35254;47.990;-1.608;2023-04-09T00:57:17;18.30;50.70
49379;DHT22;35254;47.990;-1.608;2023-04-09T00:59:44;18.30;50.70
49379;DHT22;35254;47.990;-1.608;2023-04-09T01:02:09;18.20;50.60
49379;DHT22;35254;47.990;-1.608;2023-04-09T01:04:35;18.20;50.70
49379;DHT22;35254;47.990;-1.608;2023-04-09T01:10:21;18.20;50.70
49379;DHT22;35254;47.990;-1.608;2023-04-09T01:13:14;18.20;50.70
49379;DHT22;35254;47.990;-1.608;2023-04-09T01:16:00;18.20;50.70
49379;DHT22;35254;47.990;-1.608;2023-04-09T01:18:36;18.20;50.80
49379;DHT22;35254;47.990;-1.608;2023-04-09T01:21:09;18.20;50.80
49379;DHT22;35254;47.990;-1.608;2023-04-09T01:26:16;18.20;50.80
49379;DHT22;35254;47.990;-1.608;2023-04-09T01:28:46;18.20;50.70
49379;DHT22;35254;47.990;-1.608;2023-04-09T01:31:15;18.20;50.80
49379;DHT22;35254;47.990;-1.608;2023-04-09T01:33:41;18.20;50.70
49379;DHT22;35254;47.990;-1.608;2023-04-09T01:36:08;18.20;50.80
49379;DHT22;35254;47.990;-1.608;2023-04-09T01:38:36;18.10;50.80
49379;DHT22;35254;47.990;-1.608;2023-04-09T01:41:04;18.10;50.70
49379;DHT22;35254;47.990;-1.608;2023-04-09T01:43:31;18.20;50.70
49379;DHT22;35254;47.990;-1.608;2023-04-09T01:45:59;18.10;50.70
49379;DHT22;35254;47.990;-1.608;2023-04-09T01:48:26;18.10;50.70
49379;DHT22;35254;47.990;-1.608;2023-04-09T01:50:53;18.10;50.70
49379;DHT22;35254;47.990;-1.608;2023-04-09T01:53:18;18.10;50.70
49379;DHT22;35254;47.990;-1.608;2023-04-09T01:55:45;18.10;50.60
49379;DHT22;35254;47.990;-1.608;2023-04-09T01:58:12;18.10;50.70
49379;DHT22;35254;47.990;-1.608;2023-04-09T02:00:39;18.10;50.70
49379;DHT22;35254;47.990;-1.608;2023-04-09T02:05:36;18.10;50.70
49379;DHT22;35254;47.990;-1.608;2023-04-09T02:08:04;18.10;50.70
49379;DHT22;35254;47.990;-1.608;2023-04-09T02:10:34;18.00;50.70
49379;DHT22;35254;47.990;-1.608;2023-04-09T02:13:00;18.00;50.70
49379;DHT22;35254;47.990;-1.608;2023-04-09T02:15:31;18.00;50.60
49379;DHT22;35254;47.990;-1.608;2023-04-09T02:17:58;18.00;50.70
49379;DHT22;35254;47.990;-1.608;2023-04-09T02:20:24;18.00;50.70
49379;DHT22;35254;47.990;-1.608;2023-04-09T02:22:49;18.00;50.70
49379;DHT22;35254;47.990;-1.608;2023-04-09T02:25:15;18.00;50.80
49379;DHT22;35254;47.990;-1.608;2023-04-09T02:27:41;18.00;50.80
49379;DHT22;35254;47.990;-1.608;2023-04-09T02:30:07;18.00;50.80
49379;DHT22;35254;47.990;-1.608;2023-04-09T02:32:32;17.90;50.70
49379;DHT22;35254;47.990;-1.608;2023-04-09T02:34:58;18.00;50.70
49379;DHT22;35254;47.990;-1.608;2023-04-09T02:37:24;18.00;50.70
49379;DHT22;35254;47.990;-1.608;2023-04-09T02:39:50;18.00;50.80
49379;DHT22;35254;47.990;-1.608;2023-04-09T02:42:15;17.90;50.70
49379;DHT22;35254;47.990;-1.608;2023-04-09T02:44:41;17.90;50.80
49379;DHT22;35254;47.990;-1.608;2023-04-09T02:47:08;17.90;50.80
49379;DHT22;35254;47.990;-1.608;2023-04-09T02:49:34;17.90;50.80
49379;DHT22;35254;47.990;-1.608;2023-04-09T02:52:00;17.90;50.80
49379;DHT22;35254;47.990;-1.608;2023-04-09T02:54:25;17.90;50.80
49379;DHT22;35254;47.990;-1.608;2023-04-09T02:56:51;17.90;50.90
49379;DHT22;35254;47.990;-1.608;2023-04-09T02:59:16;17.90;50.80
49379;DHT22;35254;47.990;-1.608;2023-04-09T03:01:42;17.90;50.80
49379;DHT22;35254;47.990;-1.608;2023-04-09T03:04:08;17.90;50.70
49379;DHT22;35254;47.990;-1.608;2023-04-09T03:06:33;17.80;50.70
49379;DHT22;35254;47.990;-1.608;2023-04-09T03:08:59;17.80;50.70
49379;DHT22;35254;47.990;-1.608;2023-04-09T03:11:25;17.80;50.80
49379;DHT22;35254;47.990;-1.608;2023-04-09T03:13:50;17.80;50.70
49379;DHT22;35254;47.990;-1.608;2023-04-09T03:16:16;17.80;50.70
49379;DHT22;35254;47.990;-1.608;2023-04-09T03:18:41;17.80;50.70
49379;DHT22;35254;47.990;-1.608;2023-04-09T03:21:07;17.80;50.80
49379;DHT22;35254;47.990;-1.608;2023-04-09T03:23:33;17.70;50.70
49379;DHT22;35254;47.990;-1.608;2023-04-09T03:26:01;17.80;50.80
49379;DHT22;35254;47.990;-1.608;2023-04-09T03:28:27;17.80;50.80
49379;DHT22;35254;47.990;-1.608;2023-04-09T03:30:52;17.70;51.00
49379;DHT22;35254;47.990;-1.608;2023-04-09T03:33:18;17.80;50.90
49379;DHT22;35254;47.990;-1.608;2023-04-09T03:35:43;17.80;50.90
49379;DHT22;35254;47.990;-1.608;2023-04-09T03:38:09;17.80;51.10
49379;DHT22;35254;47.990;-1.608;2023-04-09T03:40:35;17.70;51.00
49379;DHT22;35254;47.990;-1.608;2023-04-09T03:43:01;17.80;51.00
49379;DHT22;35254;47.990;-1.608;2023-04-09T03:45:28;17.70;50.90
49379;DHT22;35254;47.990;-1.608;2023-04-09T03:47:54;17.80;51.00
49379;DHT22;35254;47.990;-1.608;2023-04-09T03:50:19;17.70;50.90
49379;DHT22;35254;47.990;-1.608;2023-04-09T03:52:45;17.80;51.00
49379;DHT22;35254;47.990;-1.608;2023-04-09T03:55:11;17.70;51.00
49379;DHT22;35254;47.990;-1.608;2023-04-09T03:57:37;17.70;51.10
49379;DHT22;35254;47.990;-1.608;2023-04-09T04:00:03;17.70;51.00
49379;DHT22;35254;47.990;-1.608;2023-04-09T04:02:28;17.70;50.90
49379;DHT22;35254;47.990;-1.608;2023-04-09T04:05:00;17.70;50.90
49379;DHT22;35254;47.990;-1.608;2023-04-09T04:07:26;17.70;51.00
49379;DHT22;35254;47.990;-1.608;2023-04-09T04:09:52;17.70;51.00
49379;DHT22;35254;47.990;-1.608;2023-04-09T04:12:17;17.70;50.90
49379;DHT22;35254;47.990;-1.608;2023-04-09T04:14:43;17.70;51.00
49379;DHT22;35254;47.990;-1.608;2023-04-09T04:17:09;17.70;51.00
49379;DHT22;35254;47.990;-1.608;2023-04-09T04:19:35;17.70;51.00
49379;DHT22;35254;47.990;-1.608;2023-04-09T04:22:00;17.70;51.10
49379;DHT22;35254;47.990;-1.608;2023-04-09T04:24:26;17.70;50.90
49379;DHT22;35254;47.990;-1.608;2023-04-09T04:26:52;17.70;50.90
49379;DHT22;35254;47.990;-1.608;2023-04-09T04:29:17;17.70;51.10
49379;DHT22;35254;47.990;-1.608;2023-04-09T04:31:43;17.70;51.10
49379;DHT22;35254;47.990;-1.608;2023-04-09T04:34:09;17.70;51.00
49379;DHT22;35254;47.990;-1.608;2023-04-09T04:36:35;17.70;51.10
49379;DHT22;35254;47.990;-1.608;2023-04-09T04:39:01;17.70;51.00
49379;DHT22;35254;47.990;-1.608;2023-04-09T04:41:27;17.70;50.90
49379;DHT22;35254;47.990;-1.608;2023-04-09T04:43:53;17.70;51.00
49379;DHT22;35254;47.990;-1.608;2023-04-09T04:46:19;17.70;51.00
49379;DHT22;35254;47.990;-1.608;2023-04-09T04:48:45;17.70;50.90
49379;DHT22;35254;47.990;-1.608;2023-04-09T04:51:10;17.70;51.00
49379;DHT22;35254;47.990;-1.608;2023-04-09T04:53:36;17.60;51.00
49379;DHT22;35254;47.990;-1.608;2023-04-09T04:56:01;17.60;51.10
49379;DHT22;35254;47.990;-1.608;2023-04-09T04:58:27;17.60;51.20
49379;DHT22;35254;47.990;-1.608;2023-04-09T05:00:53;17.60;51.10
49379;DHT22;35254;47.990;-1.608;2023-04-09T05:03:19;17.60;51.10
49379;DHT22;35254;47.990;-1.608;2023-04-09T05:05:44;17.60;51.00
49379;DHT22;35254;47.990;-1.608;2023-04-09T05:08:10;17.60;51.00
49379;DHT22;35254;47.990;-1.608;2023-04-09T05:10:39;17.60;51.00
49379;DHT22;35254;47.990;-1.608;2023-04-09T05:13:04;17.60;51.10
49379;DHT22;35254;47.990;-1.608;2023-04-09T05:15:30;17.60;51.10
49379;DHT22;35254;47.990;-1.608;2023-04-09T05:17:56;17.60;51.10
49379;DHT22;35254;47.990;-1.608;2023-04-09T05:20:22;17.60;51.00
49379;DHT22;35254;47.990;-1.608;2023-04-09T05:22:48;17.60;51.00
49379;DHT22;35254;47.990;-1.608;2023-04-09T05:25:13;17.50;51.10
49379;DHT22;35254;47.990;-1.608;2023-04-09T05:27:40;17.60;51.20
49379;DHT22;35254;47.990;-1.608;2023-04-09T05:30:06;17.50;51.10
49379;DHT22;35254;47.990;-1.608;2023-04-09T05:32:32;17.50;51.10
49379;DHT22;35254;47.990;-1.608;2023-04-09T05:34:57;17.50;51.20
49379;DHT22;35254;47.990;-1.608;2023-04-09T05:37:23;17.50;51.10
49379;DHT22;35254;47.990;-1.608;2023-04-09T05:39:49;17.50;51.20
49379;DHT22;35254;47.990;-1.608;2023-04-09T05:42:15;17.50;51.20
49379;DHT22;35254;47.990;-1.608;2023-04-09T05:44:40;17.50;51.20
49379;DHT22;35254;47.990;-1.608;2023-04-09T05:47:06;17.50;51.20
49379;DHT22;35254;47.990;-1.608;2023-04-09T05:49:32;17.50;51.10
49379;DHT22;35254;47.990;-1.608;2023-04-09T05:51:57;17.50;51.20
49379;DHT22;35254;47.990;-1.608;2023-04-09T05:54:23;17.40;51.30
49379;DHT22;35254;47.990;-1.608;2023-04-09T05:56:50;17.40;51.20
49379;DHT22;35254;47.990;-1.608;2023-04-09T05:59:16;17.40;51.30
49379;DHT22;35254;47.990;-1.608;2023-04-09T06:01:42;17.50;51.20
49379;DHT22;35254;47.990;-1.608;2023-04-09T06:04:08;17.40;51.20
49379;DHT22;35254;47.990;-1.608;2023-04-09T06:06:35;17.40;51.30
49379;DHT22;35254;47.990;-1.608;2023-04-09T06:09:01;17.40;51.20
49379;DHT22;35254;47.990;-1.608;2023-04-09T06:11:27;17.40;51.20
49379;DHT22;35254;47.990;-1.608;2023-04-09T06:13:53;17.40;51.00
49379;DHT22;35254;47.990;-1.608;2023-04-09T06:16:19;17.40;51.20
49379;DHT22;35254;47.990;-1.608;2023-04-09T06:18:45;17.40;51.30
49379;DHT22;35254;47.990;-1.608;2023-04-09T06:21:11;17.40;51.20
49379;DHT22;35254;47.990;-1.608;2023-04-09T06:23:38;17.50;50.70
49379;DHT22;35254;47.990;-1.608;2023-04-09T06:26:04;17.50;50.50
49379;DHT22;35254;47.990;-1.608;2023-04-09T06:28:30;17.40;50.20
49379;DHT22;35254;47.990;-1.608;2023-04-09T06:30:56;17.40;50.20
49379;DHT22;35254;47.990;-1.608;2023-04-09T06:33:22;17.40;49.80
49379;DHT22;35254;47.990;-1.608;2023-04-09T06:35:48;17.40;49.40
49379;DHT22;35254;47.990;-1.608;2023-04-09T06:38:14;17.40;49.40
49379;DHT22;35254;47.990;-1.608;2023-04-09T06:40:40;17.40;49.50
49379;DHT22;35254;47.990;-1.608;2023-04-09T06:43:06;17.30;49.30
49379;DHT22;35254;47.990;-1.608;2023-04-09T06:45:32;17.30;49.20
49379;DHT22;35254;47.990;-1.608;2023-04-09T06:47:58;17.30;49.10
49379;DHT22;35254;47.990;-1.608;2023-04-09T06:50:24;17.30;49.10
49379;DHT22;35254;47.990;-1.608;2023-04-09T06:52:50;17.30;49.00
49379;DHT22;35254;47.990;-1.608;2023-04-09T06:55:16;17.20;48.90
49379;DHT22;35254;47.990;-1.608;2023-04-09T06:57:42;17.20;48.80
49379;DHT22;35254;47.990;-1.608;2023-04-09T07:00:08;17.20;48.70
49379;DHT22;35254;47.990;-1.608;2023-04-09T07:02:35;17.20;48.80
49379;DHT22;35254;47.990;-1.608;2023-04-09T07:05:01;17.20;48.90
49379;DHT22;35254;47.990;-1.608;2023-04-09T07:07:27;17.20;48.90
49379;DHT22;35254;47.990;-1.608;2023-04-09T07:09:53;17.20;48.90
49379;DHT22;35254;47.990;-1.608;2023-04-09T07:12:29;17.20;48.90
49379;DHT22;35254;47.990;-1.608;2023-04-09T07:14:59;17.20;48.90
49379;DHT22;35254;47.990;-1.608;2023-04-09T07:17:24;17.20;48.80
49379;DHT22;35254;47.990;-1.608;2023-04-09T07:19:50;17.30;48.70
49379;DHT22;35254;47.990;-1.608;2023-04-09T07:22:16;17.30;48.60
49379;DHT22;35254;47.990;-1.608;2023-04-09T07:24:42;17.30;48.80
49379;DHT22;35254;47.990;-1.608;2023-04-09T07:27:08;17.20;48.50
49379;DHT22;35254;47.990;-1.608;2023-04-09T07:29:34;17.30;48.70
49379;DHT22;35254;47.990;-1.608;2023-04-09T07:32:00;17.30;48.70
49379;DHT22;35254;47.990;-1.608;2023-04-09T07:34:27;17.30;48.30
49379;DHT22;35254;47.990;-1.608;2023-04-09T07:36:52;17.30;48.60
49379;DHT22;35254;47.990;-1.608;2023-04-09T07:39:19;17.30;48.40
49379;DHT22;35254;47.990;-1.608;2023-04-09T07:41:45;17.30;48.50
49379;DHT22;35254;47.990;-1.608;2023-04-09T07:44:12;17.30;48.50
49379;DHT22;35254;47.990;-1.608;2023-04-09T07:46:38;17.30;48.60
49379;DHT22;35254;47.990;-1.608;2023-04-09T07:49:04;17.30;48.30
49379;DHT22;35254;47.990;-1.608;2023-04-09T07:51:30;17.20;48.60
49379;DHT22;35254;47.990;-1.608;2023-04-09T07:53:55;17.20;48.50
49379;DHT22;35254;47.990;-1.608;2023-04-09T07:56:21;17.20;48.50
49379;DHT22;35254;47.990;-1.608;2023-04-09T07:58:47;17.20;48.60
49379;DHT22;35254;47.990;-1.608;2023-04-09T08:01:13;17.30;48.50
49379;DHT22;35254;47.990;-1.608;2023-04-09T08:03:39;17.20;48.60
49379;DHT22;35254;47.990;-1.608;2023-04-09T08:06:06;17.20;48.60
49379;DHT22;35254;47.990;-1.608;2023-04-09T08:08:31;17.20;48.90
49379;DHT22;35254;47.990;-1.608;2023-04-09T08:10:57;17.20;49.20
49379;DHT22;35254;47.990;-1.608;2023-04-09T08:13:23;17.20;49.40
49379;DHT22;35254;47.990;-1.608;2023-04-09T08:15:49;17.20;49.70
49379;DHT22;35254;47.990;-1.608;2023-04-09T08:18:15;17.20;49.80
49379;DHT22;35254;47.990;-1.608;2023-04-09T08:20:41;17.20;49.90
49379;DHT22;35254;47.990;-1.608;2023-04-09T08:23:10;17.20;50.10
49379;DHT22;35254;47.990;-1.608;2023-04-09T08:25:36;17.20;50.20
49379;DHT22;35254;47.990;-1.608;2023-04-09T08:28:01;17.20;50.30
49379;DHT22;35254;47.990;-1.608;2023-04-09T08:30:27;17.20;50.60
49379;DHT22;35254;47.990;-1.608;2023-04-09T08:32:53;17.20;50.80
49379;DHT22;35254;47.990;-1.608;2023-04-09T08:35:18;17.20;50.90
49379;DHT22;35254;47.990;-1.608;2023-04-09T08:37:44;17.20;51.20
49379;DHT22;35254;47.990;-1.608;2023-04-09T08:40:10;17.20;51.20
49379;DHT22;35254;47.990;-1.608;2023-04-09T08:42:45;17.20;51.20
49379;DHT22;35254;47.990;-1.608;2023-04-09T08:45:12;17.20;51.30
49379;DHT22;35254;47.990;-1.608;2023-04-09T08:47:40;17.20;51.50
49379;DHT22;35254;47.990;-1.608;2023-04-09T08:50:06;17.20;51.60
49379;DHT22;35254;47.990;-1.608;2023-04-09T08:52:32;17.20;51.70
49379;DHT22;35254;47.990;-1.608;2023-04-09T08:54:59;17.20;51.50
49379;DHT22;35254;47.990;-1.608;2023-04-09T08:57:24;17.20;51.80
49379;DHT22;35254;47.990;-1.608;2023-04-09T08:59:51;17.20;51.90
49379;DHT22;35254;47.990;-1.608;2023-04-09T09:02:16;17.20;51.90
49379;DHT22;35254;47.990;-1.608;2023-04-09T09:04:49;17.20;52.10
49379;DHT22;35254;47.990;-1.608;2023-04-09T09:07:16;17.20;52.10
49379;DHT22;35254;47.990;-1.608;2023-04-09T09:09:58;17.20;52.20
49379;DHT22;35254;47.990;-1.608;2023-04-09T09:12:37;17.20;52.50
49379;DHT22;35254;47.990;-1.608;2023-04-09T09:15:04;17.30;52.60
49379;DHT22;35254;47.990;-1.608;2023-04-09T09:17:30;17.30;52.90
49379;DHT22;35254;47.990;-1.608;2023-04-09T09:19:56;17.30;52.80
49379;DHT22;35254;47.990;-1.608;2023-04-09T09:22:23;17.20;52.70
49379;DHT22;35254;47.990;-1.608;2023-04-09T09:24:49;17.30;52.90
49379;DHT22;35254;47.990;-1.608;2023-04-09T09:27:35;17.30;52.90
49379;DHT22;35254;47.990;-1.608;2023-04-09T09:30:05;17.30;53.10
49379;DHT22;35254;47.990;-1.608;2023-04-09T09:32:34;17.30;53.20
49379;DHT22;35254;47.990;-1.608;2023-04-09T09:35:05;17.30;53.20
49379;DHT22;35254;47.990;-1.608;2023-04-09T09:37:31;17.30;53.50
49379;DHT22;35254;47.990;-1.608;2023-04-09T09:39:58;17.30;53.50
49379;DHT22;35254;47.990;-1.608;2023-04-09T09:42:24;17.30;53.50
49379;DHT22;35254;47.990;-1.608;2023-04-09T09:44:52;17.40;53.40
49379;DHT22;35254;47.990;-1.608;2023-04-09T09:47:18;17.40;53.50
49379;DHT22;35254;47.990;-1.608;2023-04-09T09:49:50;17.40;53.70
49379;DHT22;35254;47.990;-1.608;2023-04-09T09:52:24;17.40;53.70
49379;DHT22;35254;47.990;-1.608;2023-04-09T09:54:51;17.40;53.70
49379;DHT22;35254;47.990;-1.608;2023-04-09T09:57:20;17.40;53.80
49379;DHT22;35254;47.990;-1.608;2023-04-09T09:59:56;17.40;54.20
49379;DHT22;35254;47.990;-1.608;2023-04-09T10:02:23;17.40;53.90
49379;DHT22;35254;47.990;-1.608;2023-04-09T10:04:51;17.40;54.20
49379;DHT22;35254;47.990;-1.608;2023-04-09T10:07:19;17.40;54.50
49379;DHT22;35254;47.990;-1.608;2023-04-09T10:09:49;17.40;54.50
49379;DHT22;35254;47.990;-1.608;2023-04-09T10:12:18;17.50;54.30
49379;DHT22;35254;47.990;-1.608;2023-04-09T10:14:46;17.40;54.70
49379;DHT22;35254;47.990;-1.608;2023-04-09T10:17:12;17.40;54.60
49379;DHT22;35254;47.990;-1.608;2023-04-09T10:19:43;17.50;54.90
49379;DHT22;35254;47.990;-1.608;2023-04-09T10:22:14;17.40;54.90
49379;DHT22;35254;47.990;-1.608;2023-04-09T10:24:41;17.40;54.90
49379;DHT22;35254;47.990;-1.608;2023-04-09T10:27:14;17.50;55.10
49379;DHT22;35254;47.990;-1.608;2023-04-09T10:29:45;17.40;55.20
49379;DHT22;35254;47.990;-1.608;2023-04-09T10:32:17;17.50;55.30
49379;DHT22;35254;47.990;-1.608;2023-04-09T10:34:45;17.40;55.10
49379;DHT22;35254;47.990;-1.608;2023-04-09T10:37:19;17.40;55.20
49379;DHT22;35254;47.990;-1.608;2023-04-09T10:39:47;17.50;55.00
49379;DHT22;35254;47.990;-1.608;2023-04-09T10:42:16;17.50;55.30
49379;DHT22;35254;47.990;-1.608;2023-04-09T10:44:42;17.50;55.20
49379;DHT22;35254;47.990;-1.608;2023-04-09T10:47:09;17.50;54.90
49379;DHT22;35254;47.990;-1.608;2023-04-09T10:49:37;17.50;55.20
49379;DHT22;35254;47.990;-1.608;2023-04-09T10:52:04;17.50;55.50
49379;DHT22;35254;47.990;-1.608;2023-04-09T10:59:37;17.50;55.50
49379;DHT22;35254;47.990;-1.608;2023-04-09T11:02:06;17.50;55.70
49379;DHT22;35254;47.990;-1.608;2023-04-09T11:07:39;17.60;55.20
49379;DHT22;35254;47.990;-1.608;2023-04-09T11:10:06;17.60;55.70
49379;DHT22;35254;47.990;-1.608;2023-04-09T11:12:32;17.60;55.70
49379;DHT22;35254;47.990;-1.608;2023-04-09T11:14:58;17.60;55.40
49379;DHT22;35254;47.990;-1.608;2023-04-09T11:17:24;17.60;55.30
49379;DHT22;35254;47.990;-1.608;2023-04-09T11:19:50;17.60;55.30
49379;DHT22;35254;47.990;-1.608;2023-04-09T11:22:15;17.60;55.30
49379;DHT22;35254;47.990;-1.608;2023-04-09T11:24:41;17.60;55.50
49379;DHT22;35254;47.990;-1.608;2023-04-09T11:27:07;17.70;54.80
49379;DHT22;35254;47.990;-1.608;2023-04-09T11:29:36;17.70;55.20
49379;DHT22;35254;47.990;-1.608;2023-04-09T11:32:03;17.70;55.30
49379;DHT22;35254;47.990;-1.608;2023-04-09T11:34:31;17.70;55.40
49379;DHT22;35254;47.990;-1.608;2023-04-09T11:36:57;17.70;55.30
49379;DHT22;35254;47.990;-1.608;2023-04-09T11:39:24;17.70;55.40
49379;DHT22;35254;47.990;-1.608;2023-04-09T11:41:51;17.70;55.50
49379;DHT22;35254;47.990;-1.608;2023-04-09T11:44:16;17.70;56.10
49379;DHT22;35254;47.990;-1.608;2023-04-09T11:46:42;17.70;55.90
49379;DHT22;35254;47.990;-1.608;2023-04-09T11:49:08;17.70;55.50
49379;DHT22;35254;47.990;-1.608;2023-04-09T11:51:34;17.70;55.20
49379;DHT22;35254;47.990;-1.608;2023-04-09T11:54:06;17.70;55.60
49379;DHT22;35254;47.990;-1.608;2023-04-09T11:56:34;17.70;55.50
49379;DHT22;35254;47.990;-1.608;2023-04-09T11:59:01;17.70;55.70
49379;DHT22;35254;47.990;-1.608;2023-04-09T12:01:34;17.80;55.70
49379;DHT22;35254;47.990;-1.608;2023-04-09T12:04:00;17.70;55.70
49379;DHT22;35254;47.990;-1.608;2023-04-09T12:06:26;17.70;55.50
49379;DHT22;35254;47.990;-1.608;2023-04-09T12:08:58;17.80;56.00
49379;DHT22;35254;47.990;-1.608;2023-04-09T12:11:29;17.80;55.50
49379;DHT22;35254;47.990;-1.608;2023-04-09T12:14:00;17.80;55.70
49379;DHT22;35254;47.990;-1.608;2023-04-09T12:16:35;17.80;56.00
49379;DHT22;35254;47.990;-1.608;2023-04-09T12:19:07;17.80;55.80
49379;DHT22;35254;47.990;-1.608;2023-04-09T12:21:53;17.80;55.60
49379;DHT22;35254;47.990;-1.608;2023-04-09T12:24:23;17.80;55.30
49379;DHT22;35254;47.990;-1.608;2023-04-09T12:26:49;17.90;55.40
49379;DHT22;35254;47.990;-1.608;2023-04-09T12:29:17;17.90;55.40
49379;DHT22;35254;47.990;-1.608;2023-04-09T12:31:44;17.90;55.70
49379;DHT22;35254;47.990;-1.608;2023-04-09T12:34:10;17.90;55.80
49379;DHT22;35254;47.990;-1.608;2023-04-09T12:36:37;17.90;55.70
49379;DHT22;35254;47.990;-1.608;2023-04-09T12:39:02;17.90;55.70
49379;DHT22;35254;47.990;-1.608;2023-04-09T12:41:28;17.90;55.40
49379;DHT22;35254;47.990;-1.608;2023-04-09T12:43:54;17.90;55.40
49379;DHT22;35254;47.990;-1.608;2023-04-09T12:46:20;17.90;55.60
49379;DHT22;35254;47.990;-1.608;2023-04-09T12:48:46;17.90;55.40
49379;DHT22;35254;47.990;-1.608;2023-04-09T12:51:12;18.00;55.50
49379;DHT22;35254;47.990;-1.608;2023-04-09T12:53:39;18.00;55.70
49379;DHT22;35254;47.990;-1.608;2023-04-09T12:56:05;18.00;56.20
49379;DHT22;35254;47.990;-1.608;2023-04-09T12:58:31;17.90;55.90
49379;DHT22;35254;47.990;-1.608;2023-04-09T13:00:57;18.00;55.60
49379;DHT22;35254;47.990;-1.608;2023-04-09T13:03:24;18.00;55.50
49379;DHT22;35254;47.990;-1.608;2023-04-09T13:05:50;18.00;56.40
49379;DHT22;35254;47.990;-1.608;2023-04-09T13:08:16;18.00;55.90
49379;DHT22;35254;47.990;-1.608;2023-04-09T13:10:42;18.00;55.50
49379;DHT22;35254;47.990;-1.608;2023-04-09T13:13:08;18.10;55.30
49379;DHT22;35254;47.990;-1.608;2023-04-09T13:15:40;18.00;55.40
49379;DHT22;35254;47.990;-1.608;2023-04-09T13:18:12;18.00;55.40
49379;DHT22;35254;47.990;-1.608;2023-04-09T13:20:38;18.10;55.70
49379;DHT22;35254;47.990;-1.608;2023-04-09T13:23:04;18.10;55.70
49379;DHT22;35254;47.990;-1.608;2023-04-09T13:25:30;18.10;55.20
49379;DHT22;35254;47.990;-1.608;2023-04-09T13:27:55;18.10;55.80
49379;DHT22;35254;47.990;-1.608;2023-04-09T13:30:21;18.10;55.40
49379;DHT22;35254;47.990;-1.608;2023-04-09T13:32:47;18.10;55.40
49379;DHT22;35254;47.990;-1.608;2023-04-09T13:35:13;18.10;55.70
49379;DHT22;35254;47.990;-1.608;2023-04-09T13:37:39;18.20;55.70
49379;DHT22;35254;47.990;-1.608;2023-04-09T13:40:05;18.20;55.80
49379;DHT22;35254;47.990;-1.608;2023-04-09T13:42:33;18.10;55.70
49379;DHT22;35254;47.990;-1.608;2023-04-09T13:44:58;18.20;56.40
49379;DHT22;35254;47.990;-1.608;2023-04-09T13:47:24;18.20;56.90
49379;DHT22;35254;47.990;-1.608;2023-04-09T13:49:50;18.20;56.80
49379;DHT22;35254;47.990;-1.608;2023-04-09T13:52:18;18.20;56.80
49379;DHT22;35254;47.990;-1.608;2023-04-09T13:54:44;18.20;56.60
49379;DHT22;35254;47.990;-1.608;2023-04-09T13:57:10;18.20;56.00
49379;DHT22;35254;47.990;-1.608;2023-04-09T13:59:36;18.20;56.10
49379;DHT22;35254;47.990;-1.608;2023-04-09T14:02:03;18.20;56.70
49379;DHT22;35254;47.990;-1.608;2023-04-09T14:04:28;18.20;56.60
49379;DHT22;35254;47.990;-1.608;2023-04-09T14:06:55;18.20;56.60
49379;DHT22;35254;47.990;-1.608;2023-04-09T14:09:21;18.20;56.50
49379;DHT22;35254;47.990;-1.608;2023-04-09T14:11:47;18.20;56.40
49379;DHT22;35254;47.990;-1.608;2023-04-09T14:14:13;18.20;56.60
49379;DHT22;35254;47.990;-1.608;2023-04-09T14:16:39;18.20;56.60
49379;DHT22;35254;47.990;-1.608;2023-04-09T14:19:05;18.20;55.80
49379;DHT22;35254;47.990;-1.608;2023-04-09T14:21:32;18.20;56.60
49379;DHT22;35254;47.990;-1.608;2023-04-09T14:23:58;18.20;56.60
49379;DHT22;35254;47.990;-1.608;2023-04-09T14:26:23;18.30;56.80
49379;DHT22;35254;47.990;-1.608;2023-04-09T14:28:49;18.30;55.90
49379;DHT22;35254;47.990;-1.608;2023-04-09T14:31:15;18.30;56.20
49379;DHT22;35254;47.990;-1.608;2023-04-09T14:33:44;18.30;56.10
49379;DHT22;35254;47.990;-1.608;2023-04-09T14:36:10;18.30;55.80
49379;DHT22;35254;47.990;-1.608;2023-04-09T14:38:35;18.30;55.90
49379;DHT22;35254;47.990;-1.608;2023-04-09T14:41:01;18.40;55.80
49379;DHT22;35254;47.990;-1.608;2023-04-09T14:43:27;18.40;56.30
49379;DHT22;35254;47.990;-1.608;2023-04-09T14:45:52;18.40;56.60
49379;DHT22;35254;47.990;-1.608;2023-04-09T14:48:18;18.40;56.20
49379;DHT22;35254;47.990;-1.608;2023-04-09T14:50:44;18.40;55.60
49379;DHT22;35254;47.990;-1.608;2023-04-09T14:53:10;18.40;56.40
49379;DHT22;35254;47.990;-1.608;2023-04-09T14:55:37;18.40;56.50
49379;DHT22;35254;47.990;-1.608;2023-04-09T14:58:03;18.40;56.50
49379;DHT22;35254;47.990;-1.608;2023-04-09T15:00:31;18.40;56.40
49379;DHT22;35254;47.990;-1.608;2023-04-09T15:02:57;18.40;56.40
49379;DHT22;35254;47.990;-1.608;2023-04-09T15:05:23;18.40;56.30
49379;DHT22;35254;47.990;-1.608;2023-04-09T15:07:49;18.40;56.60
49379;DHT22;35254;47.990;-1.608;2023-04-09T15:10:14;18.40;56.20
49379;DHT22;35254;47.990;-1.608;2023-04-09T15:12:40;18.40;56.20
49379;DHT22;35254;47.990;-1.608;2023-04-09T15:15:07;18.50;56.20
49379;DHT22;35254;47.990;-1.608;2023-04-09T15:17:33;18.40;56.20
49379;DHT22;35254;47.990;-1.608;2023-04-09T15:19:58;18.50;56.40
49379;DHT22;35254;47.990;-1.608;2023-04-09T15:22:24;18.50;56.40
49379;DHT22;35254;47.990;-1.608;2023-04-09T15:24:50;18.50;56.40
49379;DHT22;35254;47.990;-1.608;2023-04-09T15:27:16;18.50;56.50
49379;DHT22;35254;47.990;-1.608;2023-04-09T15:29:42;18.50;56.40